Time;durP1;ratioP1;P1;durP2;ratioP2;P2;SDS_P1;SDS_P2;PMS_P1;PMS_P2;Temp;Humidity;BMP_temperature;BMP_pressure;BME280_temperature;BME280_humidity;BME280_pressure;Samples;Min_cycle;Max_cycle;Signal;HPM_P1;HPM_P2
2021/10/16 00:00:13;;;;;;;274.05;260.27;;;;;;;8.69;71.40;101441.22;685561;28;22446;-69
2021/10/16 00:00:34;;;;;;;262.88;249.75;;;;;;;8.68;71.44;101448.44;683801;28;92151;-69
2021/10/16 00:00:55;;;;;;;238.60;226.55;;;;;;;8.65;71.50;101448.72;686426;28;21530;-69
2021/10/16 00:01:16;;;;;;;264.30;251.18;;;;;;;8.65;71.43;101451.44;685846;28;22423;-69
2021/10/16 00:01:37;;;;;;;270.55;256.98;;;;;;;8.66;71.33;101450.44;685954;28;20897;-69
2021/10/16 00:01:59;;;;;;;253.27;240.52;;;;;;;8.66;71.22;101447.75;685951;28;22405;-69
2021/10/16 00:02:20;;;;;;;244.65;232.40;;;;;;;8.66;71.48;101448.59;685383;28;45273;-69
2021/10/16 00:02:42;;;;;;;265.25;252.00;;;;;;;8.66;71.40;101451.28;685827;28;23445;-70
2021/10/16 00:03:03;;;;;;;263.83;250.57;;;;;;;8.66;71.60;101445.06;685372;28;44356;-69
2021/10/16 00:03:25;;;;;;;250.15;237.45;;;;;;;8.63;71.49;101445.34;686156;28;21518;-69
2021/10/16 00:03:46;;;;;;;267.67;254.05;;;;;;;8.64;71.64;101450.59;684646;28;46387;-69
2021/10/16 00:04:07;;;;;;;264.77;251.38;;;;;;;8.64;71.39;101444.38;684869;28;46286;-69
2021/10/16 00:04:29;;;;;;;252.10;239.50;;;;;;;8.64;71.68;101445.19;685583;28;23884;-69
2021/10/16 00:04:54;;;;;;;276.88;262.95;;;;;;;8.64;71.75;101436.28;683102;28;92272;-69
2021/10/16 00:05:15;;;;;;;272.80;259.20;;;;;;;8.66;71.48;101451.28;683931;28;66268;-69
2021/10/16 00:05:39;;;;;;;256.70;243.80;;;;;;;8.68;71.68;101445.75;685242;28;21520;-70
2021/10/16 00:06:00;;;;;;;246.02;233.50;;;;;;;8.69;71.56;101444.75;681747;28;116016;-69
2021/10/16 00:06:21;;;;;;;262.25;249.15;;;;;;;8.70;71.78;101443.78;685757;28;22382;-69
2021/10/16 00:06:42;;;;;;;261.67;248.57;;;;;;;8.68;71.46;101445.75;685420;28;22456;-69
2021/10/16 00:07:04;;;;;;;248.73;236.20;;;;;;;8.69;71.47;101449.31;685748;28;22403;-69
2021/10/16 00:07:25;;;;;;;269.17;255.60;;;;;;;8.69;71.45;101450.16;685275;28;44407;-69
2021/10/16 00:07:47;;;;;;;274.75;260.75;;;;;;;8.69;71.60;101443.94;684840;28;23394;-69
2021/10/16 00:08:08;;;;;;;259.88;246.50;;;;;;;8.69;71.66;101450.16;684837;28;22261;-69
2021/10/16 00:08:29;;;;;;;246.20;233.75;;;;;;;8.66;71.50;101442.38;685742;28;21261;-69
2021/10/16 00:08:51;;;;;;;262.52;249.35;;;;;;;8.69;71.61;101444.75;685483;28;23474;-69
2021/10/16 00:09:12;;;;;;;262.83;249.65;;;;;;;8.70;71.48;101440.22;685175;28;46340;-69
2021/10/16 00:09:33;;;;;;;247.98;235.52;;;;;;;8.69;71.53;101439.38;686314;28;11126;-69
2021/10/16 00:09:54;;;;;;;248.85;236.35;;;;;;;8.70;71.70;101445.59;685089;28;22386;-70
2021/10/16 00:10:15;;;;;;;248.32;235.95;;;;;;;8.68;71.59;101448.44;685914;28;23438;-70
2021/10/16 00:10:37;;;;;;;243.85;231.63;;;;;;;8.69;71.55;101441.22;685604;28;22381;-69
2021/10/16 00:10:58;;;;;;;252.45;239.70;;;;;;;8.68;71.51;101440.38;684050;28;69268;-69
2021/10/16 00:11:19;;;;;;;251.43;238.77;;;;;;;8.69;71.63;101438.53;685955;28;22351;-69
2021/10/16 00:11:41;;;;;;;269.77;256.23;;;;;;;8.67;71.60;101438.69;685687;28;22423;-69
2021/10/16 00:12:03;;;;;;;257.17;244.18;;;;;;;8.68;71.56;101461.06;685730;28;22257;-69
2021/10/16 00:12:24;;;;;;;239.98;227.75;;;;;;;8.67;71.46;101449.47;685329;28;45272;-69
2021/10/16 00:12:45;;;;;;;252.40;239.57;;;;;;;8.66;71.61;101453.97;684573;28;44013;-69
2021/10/16 00:13:07;;;;;;;258.33;245.43;;;;;;;8.66;71.62;101447.75;685566;28;22539;-69
2021/10/16 00:13:29;;;;;;;243.77;231.43;;;;;;;8.66;71.30;101448.59;685966;28;23494;-70
2021/10/16 00:13:50;;;;;;;246.25;233.75;;;;;;;8.66;71.52;101445.91;684572;28;45199;-70
2021/10/16 00:14:11;;;;;;;258.95;245.75;;;;;;;8.68;71.38;101444.91;685845;28;19832;-70
2021/10/16 00:14:32;;;;;;;246.05;233.60;;;;;;;8.63;71.57;101445.34;685902;28;22480;-69
2021/10/16 00:14:54;;;;;;;257.88;244.93;;;;;;;8.66;71.41;101455.81;688087;28;22358;-70
2021/10/16 00:15:15;;;;;;;275.85;262.15;;;;;;;8.65;71.33;101452.28;687143;28;68902;-69
2021/10/16 00:15:36;;;;;;;262.00;248.88;;;;;;;8.65;71.65;101443.34;687795;28;21527;-69
2021/10/16 00:15:58;;;;;;;248.88;236.38;;;;;;;8.62;71.52;101446.34;686905;28;21541;-69
2021/10/16 00:16:19;;;;;;;264.70;251.50;;;;;;;8.65;71.50;101446.91;685072;28;44377;-70
2021/10/16 00:16:41;;;;;;;259.90;246.80;;;;;;;8.68;71.58;101447.59;685423;28;23482;-70
2021/10/16 00:17:02;;;;;;;264.13;250.82;;;;;;;8.68;71.35;101450.28;685194;28;46324;-69
2021/10/16 00:17:23;;;;;;;285.27;271.10;;;;;;;8.70;71.51;101451.00;685695;28;22473;-69
2021/10/16 00:17:44;;;;;;;268.73;255.07;;;;;;;8.70;71.51;101451.00;685085;28;23465;-69
2021/10/16 00:18:06;;;;;;;243.18;230.75;;;;;;;8.68;71.58;101447.59;685640;28;22406;-70
2021/10/16 00:18:27;;;;;;;247.60;234.98;;;;;;;8.66;71.35;101443.19;685295;28;46334;-69
2021/10/16 00:18:49;;;;;;;250.07;237.23;;;;;;;8.70;71.29;101451.00;684562;28;46237;-70
2021/10/16 00:19:10;;;;;;;251.32;238.70;;;;;;;8.71;71.28;101444.63;685933;28;21502;-69
2021/10/16 00:19:32;;;;;;;269.90;256.50;;;;;;;8.71;71.44;101444.63;685970;28;22339;-69
2021/10/16 00:19:54;;;;;;;257.67;244.93;;;;;;;8.72;71.53;101446.31;685064;28;46361;-69
2021/10/16 00:20:15;;;;;;;260.08;247.07;;;;;;;8.73;71.72;101443.47;684282;28;51992;-69
2021/10/16 00:20:36;;;;;;;279.85;265.83;;;;;;;8.69;71.40;101435.84;685586;28;22376;-69
2021/10/16 00:20:58;;;;;;;266.20;252.75;;;;;;;8.72;71.38;101438.25;685119;28;23976;-69
2021/10/16 00:21:19;;;;;;;254.32;241.60;;;;;;;8.74;71.49;101444.31;684704;28;46161;-69
2021/10/16 00:21:41;;;;;;;268.17;254.73;;;;;;;8.70;71.51;101442.91;685365;28;22386;-69
2021/10/16 00:22:02;;;;;;;292.58;277.85;;;;;;;8.71;71.43;101453.53;683333;28;46315;-69
2021/10/16 00:22:24;;;;;;;275.63;261.77;;;;;;;8.72;71.31;101446.31;686065;28;22425;-69
2021/10/16 00:22:45;;;;;;;256.50;243.43;;;;;;;8.72;71.46;101447.16;684895;28;45235;-70
2021/10/16 00:23:06;;;;;;;253.95;240.95;;;;;;;8.74;71.60;101460.47;685530;28;21542;-70
2021/10/16 00:23:28;;;;;;;273.05;259.35;;;;;;;8.74;71.50;101452.41;685792;28;23466;-69
2021/10/16 00:23:49;;;;;;;260.77;247.85;;;;;;;8.74;71.50;101452.41;684846;28;46318;-69
2021/10/16 00:24:10;;;;;;;248.75;236.30;;;;;;;8.75;71.42;101449.56;685988;28;23311;-69
2021/10/16 00:24:32;;;;;;;260.27;247.25;;;;;;;8.75;71.62;101449.56;685867;28;24184;-70
2021/10/16 00:24:58;;;;;;;260.63;247.60;;;;;;;8.73;71.59;101448.88;683846;28;61574;-69
2021/10/16 00:25:19;;;;;;;255.90;243.10;;;;;;;8.75;71.28;101448.72;685832;28;23470;-69
2021/10/16 00:25:41;;;;;;;279.75;265.75;;;;;;;8.76;71.34;101453.09;685795;28;22404;-70
2021/10/16 00:26:02;;;;;;;271.83;258.08;;;;;;;8.74;71.27;101450.53;683752;28;46367;-69
2021/10/16 00:26:23;;;;;;;259.52;246.32;;;;;;;8.75;71.37;101449.56;685951;28;21301;-70
2021/10/16 00:26:44;;;;;;;265.92;252.57;;;;;;;8.75;71.31;101451.41;685580;28;22394;-70
2021/10/16 00:27:06;;;;;;;279.45;265.55;;;;;;;8.72;71.33;101449.84;686304;28;21546;-69
2021/10/16 00:27:27;;;;;;;263.00;249.77;;;;;;;8.71;71.29;101448.16;685118;28;46572;-69
2021/10/16 00:27:48;;;;;;;257.83;244.73;;;;;;;8.72;71.43;101447.16;687009;28;22190;-69
2021/10/16 00:28:09;;;;;;;282.30;268.00;;;;;;;8.72;71.25;101455.25;688236;28;21539;-69
2021/10/16 00:28:31;;;;;;;277.83;263.95;;;;;;;8.73;71.36;101453.38;688221;28;23390;-69
2021/10/16 00:28:52;;;;;;;260.10;247.05;;;;;;;8.70;71.57;101446.47;687280;28;46349;-69
2021/10/16 00:29:14;;;;;;;260.40;247.25;;;;;;;8.73;71.31;101459.66;688008;28;23370;-69
2021/10/16 00:29:36;;;;;;;274.92;261.02;;;;;;;8.72;71.31;101454.41;687943;28;22393;-69
2021/10/16 00:29:57;;;;;;;259.58;246.43;;;;;;;8.72;71.63;101457.94;684485;28;45314;-69
2021/10/16 00:30:20;;;;;;;259.95;247.05;;;;;;;8.73;71.47;101456.94;684537;28;67537;-69
2021/10/16 00:30:41;;;;;;;273.38;259.65;;;;;;;8.74;71.42;101457.78;685598;28;21507;-70
2021/10/16 00:31:03;;;;;;;258.17;245.07;;;;;;;8.73;71.65;101453.38;685115;28;22404;-70
2021/10/16 00:31:24;;;;;;;249.13;236.52;;;;;;;8.74;71.63;101452.41;684822;28;46235;-70
2021/10/16 00:31:45;;;;;;;268.50;255.10;;;;;;;8.72;71.46;101449.84;683001;28;21522;-70
2021/10/16 00:32:06;;;;;;;263.73;250.45;;;;;;;8.74;71.51;101452.41;682563;28;44386;-70
2021/10/16 00:32:28;;;;;;;250.75;238.10;;;;;;;8.73;71.62;101459.66;685894;28;23404;-69
2021/10/16 00:32:51;;;;;;;261.15;247.98;;;;;;;8.74;71.60;101457.78;683172;28;69352;-70
2021/10/16 00:33:13;;;;;;;257.50;244.52;;;;;;;8.74;71.43;101449.72;684911;28;44194;-70
2021/10/16 00:33:34;;;;;;;261.00;247.77;;;;;;;8.75;71.48;101459.50;685827;28;21502;-70
2021/10/16 00:33:56;;;;;;;281.40;267.23;;;;;;;8.73;71.75;101445.31;688039;28;46304;-70
2021/10/16 00:34:17;;;;;;;267.63;254.25;;;;;;;8.76;71.54;101453.97;687447;28;44391;-70
2021/10/16 00:34:38;;;;;;;250.52;237.93;;;;;;;8.75;71.79;101460.34;688441;28;22400;-70
2021/10/16 00:35:00;;;;;;;252.47;239.73;;;;;;;8.75;71.52;101456.81;686688;28;44352;-70
2021/10/16 00:35:23;;;;;;;256.75;243.68;;;;;;;8.68;71.35;101450.28;686749;28;69639;-70
2021/10/16 00:35:44;;;;;;;252.88;240.25;;;;;;;8.73;71.55;101461.47;684648;28;46337;-69
2021/10/16 00:36:05;;;;;;;271.23;257.75;;;;;;;8.73;71.57;101461.47;684107;28;41847;-70
2021/10/16 00:36:27;;;;;;;258.48;245.55;;;;;;;8.72;71.48;101465.19;687552;28;46399;-70
2021/10/16 00:36:48;;;;;;;256.42;243.68;;;;;;;8.73;71.58;101464.16;684737;28;46428;-70
2021/10/16 00:37:10;;;;;;;263.83;250.68;;;;;;;8.73;71.66;101469.53;685497;28;22331;-70
2021/10/16 00:37:31;;;;;;;248.02;235.63;;;;;;;8.71;71.32;101455.38;684746;28;46328;-70
2021/10/16 00:37:52;;;;;;;259.83;246.77;;;;;;;8.72;71.63;101467.88;682194;28;21368;-70
2021/10/16 00:38:13;;;;;;;259.13;246.20;;;;;;;8.72;71.52;101463.31;683297;28;22395;-69
2021/10/16 00:38:35;;;;;;;246.38;233.95;;;;;;;8.70;71.34;101456.38;683609;28;21529;-69
2021/10/16 00:38:56;;;;;;;259.35;246.20;;;;;;;8.70;71.60;101461.75;683512;28;44368;-69
2021/10/16 00:39:18;;;;;;;266.05;252.73;;;;;;;8.72;71.60;101463.31;683521;28;22641;-70
2021/10/16 00:39:39;;;;;;;253.85;241.15;;;;;;;8.72;71.56;101466.00;684215;28;23358;-70
2021/10/16 00:40:00;;;;;;;254.70;241.90;;;;;;;8.74;71.28;101463.19;685840;28;22399;-69
2021/10/16 00:40:22;;;;;;;268.70;255.20;;;;;;;8.74;71.51;101457.78;686427;28;21565;-69
2021/10/16 00:40:43;;;;;;;254.85;242.15;;;;;;;8.73;71.21;101461.47;685869;28;46263;-69
2021/10/16 00:41:04;;;;;;;248.23;235.82;;;;;;;8.72;71.30;101466.00;686694;28;22393;-69
2021/10/16 00:41:26;;;;;;;267.98;254.68;;;;;;;8.71;71.25;101460.78;686204;28;21524;-69
2021/10/16 00:41:47;;;;;;;261.60;248.57;;;;;;;8.70;71.55;101470.72;684639;28;46826;-69
2021/10/16 00:42:08;;;;;;;247.57;235.13;;;;;;;8.70;71.24;101464.44;682920;28;21514;-69
2021/10/16 00:42:29;;;;;;;251.52;238.93;;;;;;;8.70;71.23;101464.44;683088;28;23557;-69
2021/10/16 00:42:53;;;;;;;268.70;255.20;;;;;;;8.70;71.54;101475.22;683813;28;22358;-69
2021/10/16 00:43:14;;;;;;;248.98;236.38;;;;;;;8.70;71.29;101465.31;684021;28;114937;-69
2021/10/16 00:43:36;;;;;;;248.68;236.07;;;;;;;8.68;71.58;101469.16;686743;28;22452;-69
2021/10/16 00:44:10;;;;;;;268.35;254.70;;;;;;;8.68;71.30;101471.84;686670;28;46305;-69
2021/10/16 00:44:32;;;;;;;227.05;215.63;;;;;;;8.68;71.27;101466.47;684362;28;138923;-69
2021/10/16 00:44:57;;;;;;;245.55;233.23;;;;;;;8.66;71.18;101467.44;685044;28;23351;-70
2021/10/16 00:45:20;;;;;;;266.05;252.80;;;;;;;8.66;71.54;101464.75;678784;28;135518;-69
2021/10/16 00:45:41;;;;;;;250.30;237.75;;;;;;;8.65;71.49;101468.47;680955;28;66822;-69
2021/10/16 00:46:02;;;;;;;236.27;224.35;;;;;;;8.63;71.30;101465.03;682197;28;23463;-70
2021/10/16 00:46:24;;;;;;;255.73;242.88;;;;;;;8.65;71.29;101470.28;682151;28;46331;-70
2021/10/16 00:46:46;;;;;;;262.48;249.18;;;;;;;8.64;71.46;101472.13;680675;28;45256;-70
2021/10/16 00:47:07;;;;;;;252.00;239.15;;;;;;;8.63;71.30;101465.03;682964;28;21470;-70
2021/10/16 00:47:28;;;;;;;242.88;230.80;;;;;;;8.64;71.72;101468.59;683717;28;22391;-70
2021/10/16 00:47:50;;;;;;;263.33;250.02;;;;;;;8.64;71.65;101469.44;684879;28;21510;-70
2021/10/16 00:48:12;;;;;;;257.05;244.13;;;;;;;8.60;71.39;101461.81;684326;28;69454;-69
2021/10/16 00:48:33;;;;;;;241.95;229.77;;;;;;;8.62;71.59;101471.44;685308;28;23528;-70
2021/10/16 00:48:54;;;;;;;255.30;242.32;;;;;;;8.62;71.72;101463.34;685430;28;23484;-70
2021/10/16 00:49:15;;;;;;;256.20;243.15;;;;;;;8.62;71.76;101465.19;683788;28;22455;-70
2021/10/16 00:49:37;;;;;;;254.45;241.75;;;;;;;8.60;71.53;101459.94;683138;28;22384;-69
2021/10/16 00:49:58;;;;;;;270.02;256.48;;;;;;;8.62;71.46;101463.34;684641;28;46624;-69
2021/10/16 00:50:22;;;;;;;254.20;241.38;;;;;;;8.61;71.72;101464.34;686062;28;22397;-70
2021/10/16 00:50:44;;;;;;;267.88;254.23;;;;;;;8.56;71.72;101455.88;681756;28;92348;-70
2021/10/16 00:51:06;;;;;;;265.03;251.67;;;;;;;8.60;71.37;101465.34;683556;28;58306;-70
2021/10/16 00:51:27;;;;;;;249.88;237.48;;;;;;;8.59;71.48;101460.97;686147;28;44425;-70
2021/10/16 00:51:48;;;;;;;242.90;230.73;;;;;;;8.56;71.40;101452.34;684531;28;22329;-70
2021/10/16 00:52:09;;;;;;;249.00;236.45;;;;;;;8.58;71.54;101467.34;682763;28;22305;-70
2021/10/16 00:52:31;;;;;;;241.52;229.25;;;;;;;8.56;71.66;101457.72;683069;28;21544;-70
2021/10/16 00:52:52;;;;;;;254.85;241.90;;;;;;;8.55;71.59;101458.72;681587;28;44393;-69
2021/10/16 00:53:14;;;;;;;259.02;246.13;;;;;;;8.54;71.57;101457.00;683135;28;23462;-69
2021/10/16 00:53:35;;;;;;;256.70;243.95;;;;;;;8.53;71.42;101464.22;685270;28;43663;-70
2021/10/16 00:53:57;;;;;;;279.90;265.90;;;;;;;8.52;71.50;101454.44;688085;28;23467;-70
2021/10/16 00:54:19;;;;;;;266.80;253.35;;;;;;;8.51;71.81;101458.16;687727;28;46347;-70
2021/10/16 00:54:41;;;;;;;250.07;237.50;;;;;;;8.51;71.58;101455.47;687415;28;45151;-70
2021/10/16 00:55:03;;;;;;;266.30;252.90;;;;;;;8.51;71.57;101458.16;687680;28;21483;-69
2021/10/16 00:55:26;;;;;;;270.98;257.33;;;;;;;8.52;71.68;101464.38;686141;28;69418;-69
2021/10/16 00:55:49;;;;;;;254.35;241.38;;;;;;;8.48;71.76;101459.28;683778;28;69427;-69
2021/10/16 00:56:10;;;;;;;263.27;249.80;;;;;;;8.50;71.65;101461.00;681999;28;45170;-70
2021/10/16 00:56:33;;;;;;;271.17;257.63;;;;;;;8.50;71.72;101463.69;680481;28;21520;-70
2021/10/16 00:56:55;;;;;;;255.13;242.30;;;;;;;8.51;72.04;101468.94;677566;29;92871;-70
2021/10/16 00:57:16;;;;;;;259.13;246.18;;;;;;;8.51;72.05;101468.06;677969;29;44138;-70
2021/10/16 00:57:38;;;;;;;286.02;271.85;;;;;;;8.52;72.06;101467.91;679101;28;23429;-70
2021/10/16 00:58:00;;;;;;;273.33;259.67;;;;;;;8.51;72.08;101460.84;682188;28;21522;-70
2021/10/16 00:58:23;;;;;;;255.60;242.82;;;;;;;8.54;71.93;101468.63;681914;28;69316;-70
2021/10/16 00:58:44;;;;;;;254.13;241.40;;;;;;;8.56;72.04;101458.56;683424;28;69910;-70
2021/10/16 00:59:09;;;;;;;263.02;249.88;;;;;;;8.56;71.72;101463.94;683818;28;69327;-70
2021/10/16 00:59:30;;;;;;;238.70;226.67;;;;;;;8.55;72.02;101462.22;683432;28;69378;-70
2021/10/16 00:59:52;;;;;;;238.27;226.27;;;;;;;8.55;71.73;101461.41;681875;28;47243;-70
2021/10/16 01:00:14;;;;;;;258.40;245.40;;;;;;;8.55;71.80;101467.63;681147;28;66236;-70
2021/10/16 01:00:36;;;;;;;242.13;229.93;;;;;;;8.55;71.99;101456.84;682782;28;46359;-70
2021/10/16 01:00:57;;;;;;;254.32;241.57;;;;;;;8.53;71.88;101458.84;687244;28;21300;-69
2021/10/16 01:01:18;;;;;;;289.10;274.65;;;;;;;8.53;71.65;101461.53;685307;28;45989;-70
2021/10/16 01:01:40;;;;;;;272.90;259.30;;;;;;;8.52;71.91;101462.53;686359;28;22394;-70
2021/10/16 01:02:02;;;;;;;258.60;245.80;;;;;;;8.53;71.97;101456.16;685794;28;45215;-69
2021/10/16 01:02:23;;;;;;;242.18;230.05;;;;;;;8.54;72.00;101460.56;686674;28;22751;-70
2021/10/16 01:02:44;;;;;;;250.88;238.27;;;;;;;8.54;71.73;101463.25;683163;28;22396;-69
2021/10/16 01:03:08;;;;;;;256.48;243.50;;;;;;;8.52;71.95;101462.53;681012;28;46270;-70
2021/10/16 01:03:29;;;;;;;242.70;230.50;;;;;;;8.54;71.85;101470.47;681059;28;46193;-70
2021/10/16 01:03:50;;;;;;;248.05;235.80;;;;;;;8.53;72.04;101468.78;681661;28;44356;-69
2021/10/16 01:04:11;;;;;;;253.90;241.18;;;;;;;8.54;71.87;101465.94;681951;28;21522;-69
2021/10/16 01:04:40;;;;;;;242.38;230.25;;;;;;;8.53;71.86;101466.94;677849;29;137540;-69
2021/10/16 01:05:08;;;;;;;254.85;242.05;;;;;;;8.54;71.89;101457.00;680020;28;136120;-69
2021/10/16 01:05:33;;;;;;;244.50;232.23;;;;;;;8.55;71.80;101461.41;688296;28;45340;-69
2021/10/16 01:05:56;;;;;;;267.73;254.32;;;;;;;8.51;72.15;101455.47;683242;28;113673;-70
2021/10/16 01:06:17;;;;;;;259.55;246.50;;;;;;;8.55;71.93;101454.16;686384;28;44111;-70
2021/10/16 01:06:39;;;;;;;247.32;235.02;;;;;;;8.57;71.99;101468.31;687144;28;22420;-70
2021/10/16 01:07:00;;;;;;;255.90;243.18;;;;;;;8.58;72.00;101461.94;684789;28;46551;-70
2021/10/16 01:07:22;;;;;;;258.25;245.38;;;;;;;8.58;71.81;101455.72;682960;28;22197;-70
2021/10/16 01:07:44;;;;;;;252.55;239.95;;;;;;;8.56;71.75;101463.09;677780;29;69316;-70
2021/10/16 01:08:09;;;;;;;280.80;266.80;;;;;;;8.55;71.71;101456.84;680676;29;21344;-70
2021/10/16 01:08:31;;;;;;;270.15;256.63;;;;;;;8.59;71.73;101457.41;677140;29;138241;-70
2021/10/16 01:08:55;;;;;;;255.27;242.45;;;;;;;8.59;71.84;101460.97;680548;28;69401;-70
2021/10/16 01:09:16;;;;;;;251.05;238.38;;;;;;;8.59;71.79;101460.09;680837;28;69367;-70
2021/10/16 01:09:37;;;;;;;273.55;259.90;;;;;;;8.60;71.72;101464.50;684851;28;22376;-70
2021/10/16 01:09:59;;;;;;;268.42;254.98;;;;;;;8.59;71.60;101463.66;686176;28;23811;-69
2021/10/16 01:10:20;;;;;;;258.73;245.77;;;;;;;8.60;71.87;101459.09;687916;28;46469;-69
2021/10/16 01:10:41;;;;;;;279.15;265.15;;;;;;;8.60;72.05;101461.81;687850;28;44365;-69
2021/10/16 01:11:02;;;;;;;276.65;262.70;;;;;;;8.62;71.72;101459.81;687897;28;22376;-69
2021/10/16 01:11:37;;;;;;;264.67;251.45;;;;;;;8.62;71.93;101466.06;687419;28;22433;-69
2021/10/16 01:11:59;;;;;;;286.30;272.08;;;;;;;8.61;71.68;101463.50;683012;28;138008;-70
2021/10/16 01:12:20;;;;;;;290.70;276.20;;;;;;;8.60;71.54;101456.41;681764;28;45252;-69
2021/10/16 01:12:43;;;;;;;273.17;259.65;;;;;;;8.59;71.75;101462.78;681651;28;21380;-69
2021/10/16 01:13:04;;;;;;;257.10;244.27;;;;;;;8.57;71.92;101462.94;679487;29;92331;-69
2021/10/16 01:13:27;;;;;;;274.83;261.10;;;;;;;8.56;72.02;101455.03;684056;28;21557;-69
2021/10/16 01:13:48;;;;;;;272.35;258.83;;;;;;;8.59;72.06;101470.88;680019;28;67466;-70
2021/10/16 01:14:11;;;;;;;260.02;247.07;;;;;;;8.58;71.73;101461.94;684447;28;23430;-70
2021/10/16 01:14:32;;;;;;;272.77;259.20;;;;;;;8.59;71.75;101469.03;681564;28;66578;-70
2021/10/16 01:14:57;;;;;;;270.17;256.70;;;;;;;8.59;72.02;101458.28;682508;28;23528;-70
2021/10/16 01:15:18;;;;;;;252.45;239.80;;;;;;;8.60;71.99;101459.94;678896;28;90481;-70
2021/10/16 01:15:39;;;;;;;271.88;258.27;;;;;;;8.62;72.06;101462.50;678561;29;46323;-69
2021/10/16 01:16:00;;;;;;;270.80;257.15;;;;;;;8.62;71.89;101460.66;679739;28;21584;-69
2021/10/16 01:16:22;;;;;;;261.33;248.18;;;;;;;8.62;71.70;101455.28;681817;28;22388;-69
2021/10/16 01:16:45;;;;;;;210.05;199.45;;;;;;;8.63;71.86;101462.34;679841;29;45287;-69
2021/10/16 01:17:06;;;;;;;205.50;195.10;;;;;;;8.62;71.95;101466.06;682239;28;69285;-69
2021/10/16 01:17:28;;;;;;;202.00;191.77;;;;;;;8.63;71.65;101466.88;685343;28;46607;-69
2021/10/16 01:17:52;;;;;;;242.25;229.98;;;;;;;8.64;71.65;101461.34;685549;28;23802;-70
2021/10/16 01:18:13;;;;;;;216.13;205.25;;;;;;;8.65;71.73;101463.06;684304;28;92243;-70
2021/10/16 01:18:34;;;;;;;196.63;186.65;;;;;;;8.65;71.87;101467.59;687296;28;21546;-69
2021/10/16 01:18:56;;;;;;;237.48;225.48;;;;;;;8.65;71.81;101467.59;686813;28;44363;-70
2021/10/16 01:19:20;;;;;;;224.80;213.35;;;;;;;8.65;71.91;101468.47;686068;28;22167;-70
2021/10/16 01:19:42;;;;;;;210.32;199.68;;;;;;;8.65;71.62;101462.19;683699;28;90984;-70
2021/10/16 01:20:06;;;;;;;245.00;232.65;;;;;;;8.66;71.49;101466.59;685156;28;46153;-70
2021/10/16 01:20:27;;;;;;;239.10;227.15;;;;;;;8.65;71.79;101463.06;683859;28;92296;-70
2021/10/16 01:20:58;;;;;;;219.85;208.70;;;;;;;8.65;71.46;101462.19;684904;28;46433;-70
2021/10/16 01:21:19;;;;;;;226.68;215.23;;;;;;;8.63;71.48;101467.72;682287;28;137898;-69
2021/10/16 01:21:41;;;;;;;231.05;219.40;;;;;;;8.62;71.80;101462.50;685830;28;23521;-70
2021/10/16 01:22:03;;;;;;;193.65;183.77;;;;;;;8.62;71.53;101468.75;683767;28;46437;-70
2021/10/16 01:22:24;;;;;;;238.52;226.48;;;;;;;8.61;71.69;101467.03;683379;28;46323;-70
2021/10/16 01:22:48;;;;;;;254.63;241.85;;;;;;;8.60;71.52;101468.03;684387;28;24371;-70
2021/10/16 01:23:10;;;;;;;243.48;231.27;;;;;;;8.59;71.47;101460.09;682371;28;113572;-69
2021/10/16 01:23:34;;;;;;;217.85;206.80;;;;;;;8.61;71.48;101463.50;685994;28;46299;-69
2021/10/16 01:23:56;;;;;;;228.40;216.85;;;;;;;8.60;71.70;101459.94;685439;28;92264;-69
2021/10/16 01:24:18;;;;;;;243.02;230.73;;;;;;;8.60;71.62;101457.25;685568;28;45270;-69
2021/10/16 01:24:40;;;;;;;221.02;209.73;;;;;;;8.58;71.62;101461.94;682702;28;46470;-69
2021/10/16 01:25:02;;;;;;;208.82;198.27;;;;;;;8.57;71.66;101468.31;681910;28;46302;-69
2021/10/16 01:25:25;;;;;;;226.20;214.80;;;;;;;8.56;71.42;101463.94;683049;28;45254;-69
2021/10/16 01:25:46;;;;;;;217.10;206.10;;;;;;;8.54;71.63;101460.56;680955;28;67311;-69
2021/10/16 01:26:07;;;;;;;202.88;192.60;;;;;;;8.51;71.63;101460.84;684343;28;21283;-69
2021/10/16 01:26:29;;;;;;;208.77;198.32;;;;;;;8.53;71.78;101460.72;686761;28;23471;-70
2021/10/16 01:26:51;;;;;;;220.23;209.13;;;;;;;8.50;71.43;101461.84;687796;28;46405;-69
2021/10/16 01:27:13;;;;;;;250.27;237.73;;;;;;;8.50;71.59;101467.22;685852;28;23290;-69
2021/10/16 01:27:36;;;;;;;273.42;259.77;;;;;;;8.48;71.64;101456.59;681782;28;69349;-70
2021/10/16 01:27:58;;;;;;;259.33;246.25;;;;;;;8.51;71.87;101457.28;682789;28;69556;-69
2021/10/16 01:28:19;;;;;;;260.40;247.40;;;;;;;8.52;71.84;101464.38;683175;28;45262;-69
2021/10/16 01:28:41;;;;;;;275.83;262.05;;;;;;;8.48;71.73;101464.66;682030;28;21529;-70
2021/10/16 01:29:04;;;;;;;260.73;247.63;;;;;;;8.49;71.60;101465.50;682187;28;45070;-70
2021/10/16 01:29:25;;;;;;;261.02;248.02;;;;;;;8.44;71.47;101459.72;686258;28;69332;-70
2021/10/16 01:29:46;;;;;;;283.02;268.83;;;;;;;8.47;71.42;101464.81;689513;28;23507;-70
2021/10/16 01:30:10;;;;;;;266.77;253.38;;;;;;;8.46;71.82;101466.66;688730;28;44346;-70
2021/10/16 01:30:32;;;;;;;249.80;237.18;;;;;;;8.43;71.77;101458.88;688691;28;69429;-70
2021/10/16 01:30:54;;;;;;;266.08;252.70;;;;;;;8.45;71.68;101459.56;687073;28;46405;-70
2021/10/16 01:31:16;;;;;;;270.90;257.42;;;;;;;8.44;71.74;101460.56;687113;28;45216;-69
2021/10/16 01:31:37;;;;;;;254.13;241.30;;;;;;;8.42;71.39;101459.84;685690;28;20741;-70
2021/10/16 01:32:01;;;;;;;266.92;253.40;;;;;;;8.42;71.77;101465.22;685174;28;44646;-70
2021/10/16 01:32:23;;;;;;;263.67;250.43;;;;;;;8.40;71.84;101463.66;682657;28;67665;-70
2021/10/16 01:32:44;;;;;;;248.55;236.02;;;;;;;8.40;71.58;101463.66;682446;28;46792;-69
2021/10/16 01:33:05;;;;;;;263.73;250.48;;;;;;;8.41;71.60;101466.19;682589;28;45242;-69
2021/10/16 01:33:26;;;;;;;274.20;260.45;;;;;;;8.38;71.68;101458.41;683618;28;22410;-69
2021/10/16 01:33:47;;;;;;;259.35;246.27;;;;;;;8.41;71.79;101465.38;683051;28;21513;-69
2021/10/16 01:34:09;;;;;;;263.92;250.65;;;;;;;8.40;71.54;101466.34;683955;28;22394;-70
2021/10/16 01:34:30;;;;;;;287.77;273.42;;;;;;;8.39;71.67;101465.50;683489;28;46357;-69
2021/10/16 01:34:51;;;;;;;273.52;259.83;;;;;;;8.38;71.88;101468.34;681803;29;21509;-69
2021/10/16 01:35:13;;;;;;;258.88;245.93;;;;;;;8.40;71.93;101456.44;681167;28;22368;-69
2021/10/16 01:35:35;;;;;;;252.43;239.73;;;;;;;8.42;71.72;101462.53;682017;28;47180;-69
2021/10/16 01:35:59;;;;;;;273.73;259.95;;;;;;;8.42;71.92;101462.53;681765;28;45229;-69
2021/10/16 01:36:20;;;;;;;260.40;247.30;;;;;;;8.44;72.05;101465.09;682062;28;90653;-69
2021/10/16 01:36:44;;;;;;;257.65;244.70;;;;;;;8.41;71.73;101462.66;683619;28;46258;-69
2021/10/16 01:37:06;;;;;;;284.33;270.13;;;;;;;8.43;71.93;101468.75;681909;28;67957;-69
2021/10/16 01:37:32;;;;;;;264.85;251.57;;;;;;;8.42;71.89;101467.91;679819;28;136676;-69
2021/10/16 01:37:54;;;;;;;254.15;241.35;;;;;;;8.43;71.67;101468.75;680501;28;46047;-70
2021/10/16 01:38:19;;;;;;;273.88;260.13;;;;;;;8.41;71.75;101465.38;675901;29;113668;-69
2021/10/16 01:38:41;;;;;;;266.42;253.02;;;;;;;8.41;71.59;101458.13;678674;29;20875;-69
2021/10/16 01:39:02;;;;;;;262.10;248.85;;;;;;;8.39;71.88;101457.44;680201;29;69391;-69
2021/10/16 01:39:26;;;;;;;289.70;275.15;;;;;;;8.39;71.73;101459.28;681913;28;68556;-70
2021/10/16 01:39:48;;;;;;;279.40;265.33;;;;;;;8.38;71.64;101463.81;684628;28;67555;-70